Time;durP1;ratioP1;P1;durP2;ratioP2;P2;SDS_P1;SDS_P2;PMS_P1;PMS_P2;Temp;Humidity;BMP_temperature;BMP_pressure;BME280_temperature;BME280_humidity;BME280_pressure;Samples;Min_cycle;Max_cycle;Signal;HPM_P1;HPM_P2
2022/07/03 00:02:25;;;;;;;;;;;;;;;15.52;100.00;91453.72;5013852;28;20404;-68
2022/07/03 00:04:50;;;;;;;;;;;;;;;15.51;100.00;91457.50;5013725;28;20390;-68
2022/07/03 00:07:15;;;;;;;;;;;;;;;15.55;100.00;91455.75;5013865;28;19964;-68
2022/07/03 00:09:40;;;;;;;;;;;;;;;15.52;100.00;91450.25;5013793;28;19913;-68
2022/07/03 00:12:06;;;;;;;;;;;;;;;15.51;100.00;91452.16;4995943;28;19913;-68
2022/07/03 00:14:32;;;;;;;;;;;;;;;15.48;100.00;91452.03;5013723;28;19913;-68
2022/07/03 00:16:57;;;;;;;;;;;;;;;15.49;100.00;91448.22;5013713;28;19917;-68
2022/07/03 00:19:23;;;;;;;;;;;;;;;15.47;100.00;91445.09;5013704;28;20003;-68
2022/07/03 00:21:52;;;;;;;;;;;;;;;15.42;100.00;91447.94;5013760;28;19917;-68
2022/07/03 00:24:25;;;;;;;;;;;;;;;15.42;100.00;91448.72;5013644;28;19917;-69
2022/07/03 00:26:52;;;;;;;;;;;;;;;15.40;100.00;91440.22;5013807;28;19914;-68
2022/07/03 00:29:19;;;;;;;;;;;;;;;15.41;100.00;91441.00;5013480;28;20417;-68
2022/07/03 00:31:46;;;;;;;;;;;;;;;15.40;100.00;91434.09;5013271;28;20354;-68
2022/07/03 00:34:14;;;;;;;;;;;;;;;15.39;100.00;91437.88;5013153;28;19917;-68
2022/07/03 00:36:40;;;;;;;;;;;;;;;15.37;100.00;91434.75;5013280;28;19947;-68
2022/07/03 00:39:05;;;;;;;;;;;;;;;15.43;100.00;91441.47;5013154;28;19913;-68
2022/07/03 00:41:32;;;;;;;;;;;;;;;15.33;100.00;91439.97;5013061;28;20394;-68
2022/07/03 00:43:57;;;;;;;;;;;;;;;15.25;100.00;91433.53;5013099;28;19920;-68
2022/07/03 00:46:24;;;;;;;;;;;;;;;15.18;100.00;91435.16;5013128;28;19913;-68
2022/07/03 00:48:50;;;;;;;;;;;;;;;15.18;100.00;91435.94;5012869;28;19925;-67
2022/07/03 00:51:18;;;;;;;;;;;;;;;15.31;100.00;91423.44;5012727;28;19914;-68
2022/07/03 00:53:45;;;;;;;;;;;;;;;15.35;100.00;91431.59;5012994;28;20377;-68
2022/07/03 00:56:13;;;;;;;;;;;;;;;15.37;100.00;91435.53;5012869;28;19975;-67
2022/07/03 00:58:38;;;;;;;;;;;;;;;15.43;100.00;91417.34;5012922;28;20004;-67
2022/07/03 01:01:04;;;;;;;;;;;;;;;15.43;100.00;91425.38;5012961;28;20414;-67
2022/07/03 01:03:32;;;;;;;;;;;;;;;15.47;100.00;91424.44;5013034;28;19917;-67
2022/07/03 01:06:03;;;;;;;;;;;;;;;15.49;100.00;91424.88;5013172;28;19917;-67
2022/07/03 01:08:28;;;;;;;;;;;;;;;15.57;100.00;91415.19;5012756;28;20354;-67
2022/07/03 01:11:12;;;;;;;;;;;;;;;15.59;100.00;91410.31;5012694;28;19924;-68
2022/07/03 01:13:43;;;;;;;;;;;;;;;15.57;100.00;91407.16;5012683;28;19963;-68
2022/07/03 01:16:30;;;;;;;;;;;;;;;15.58;100.00;91414.06;5012641;28;20007;-68
2022/07/03 01:18:59;;;;;;;;;;;;;;;15.55;100.00;91404.00;5012805;28;19913;-68
2022/07/03 01:21:35;;;;;;;;;;;;;;;15.59;100.00;91399.59;5012769;28;20373;-68
2022/07/03 01:24:13;;;;;;;;;;;;;;;15.55;100.00;91398.66;5012377;28;19913;-68
2022/07/03 01:26:41;;;;;;;;;;;;;;;15.47;100.00;91394.94;5012403;28;19956;-68
2022/07/03 01:29:07;;;;;;;;;;;;;;;15.42;100.00;91397.00;5012404;28;20466;-68
2022/07/03 01:31:33;;;;;;;;;;;;;;;15.36;100.00;91396.41;5012230;28;19913;-67
2022/07/03 01:33:59;;;;;;;;;;;;;;;15.33;100.00;91399.75;5012112;28;19928;-67
2022/07/03 01:36:28;;;;;;;;;;;;;;;15.35;100.00;91399.44;5012235;28;19917;-67
2022/07/03 01:38:55;;;;;;;;;;;;;;;15.34;100.00;91397.84;5012263;28;19967;-67
2022/07/03 01:41:23;;;;;;;;;;;;;;;15.23;100.00;91400.13;5012460;28;19914;-67
2022/07/03 01:43:52;;;;;;;;;;;;;;;15.15;100.00;91395.63;5012107;28;20100;-67
2022/07/03 01:46:18;;;;;;;;;;;;;;;15.20;100.00;91406.94;5012198;28;19914;-67
2022/07/03 01:48:44;;;;;;;;;;;;;;;15.23;100.00;91408.16;5011943;28;19925;-67
2022/07/03 01:51:13;;;;;;;;;;;;;;;15.22;100.00;91402.03;5012111;28;19955;-67
2022/07/03 01:53:42;;;;;;;;;;;;;;;15.27;100.00;91401.81;5011961;28;20008;-67
2022/07/03 01:56:09;;;;;;;;;;;;;;;15.22;100.00;91390.50;4994442;28;20383;-67
2022/07/03 01:58:34;;;;;;;;;;;;;;;15.21;100.00;91387.06;5012021;28;19924;-67
2022/07/03 02:01:03;;;;;;;;;;;;;;;15.21;100.00;91392.41;5011309;28;19917;-67
2022/07/03 02:03:30;;;;;;;;;;;;;;;15.13;100.00;91403.16;5011925;28;19914;-67
2022/07/03 02:06:12;;;;;;;;;;;;;;;15.06;100.00;91398.34;5018478;28;19923;-67
2022/07/03 02:08:37;;;;;;;;;;;;;;;15.01;100.00;91395.06;5013830;28;20339;-67
2022/07/03 02:11:16;;;;;;;;;;;;;;;14.96;100.00;91401.38;5031450;28;19920;-67
2022/07/03 02:13:50;;;;;;;;;;;;;;;14.84;100.00;91396.72;5031315;28;19913;-67
2022/07/03 02:16:18;;;;;;;;;;;;;;;14.75;100.00;91397.84;5031477;28;20366;-67
2022/07/03 02:18:43;;;;;;;;;;;;;;;14.75;100.00;91400.53;5031550;28;19913;-67
2022/07/03 02:21:18;;;;;;;;;;;;;;;14.76;100.00;91394.06;5031433;28;20032;-67
2022/07/03 02:24:04;;;;;;;;;;;;;;;14.70;100.00;91390.78;5031444;28;19913;-67
2022/07/03 02:29:06;;;;;;;;;;;;;;;14.77;100.00;91385.72;5039226;23;19931;-69
2022/07/03 02:31:40;;;;;;;;;;;;;;;14.81;100.00;91391.19;5031489;28;19917;-69
2022/07/03 02:34:06;;;;;;;;;;;;;;;14.88;100.00;91388.81;5031293;28;19920;-70
2022/07/03 02:36:33;;;;;;;;;;;;;;;14.91;100.00;91390.84;5031302;28;19913;-69
2022/07/03 02:38:59;;;;;;;;;;;;;;;14.94;100.00;91392.88;5031032;28;19913;-70
2022/07/03 02:41:46;;;;;;;;;;;;;;;14.90;100.00;91397.31;5031235;28;20393;-69
2022/07/03 02:44:21;;;;;;;;;;;;;;;14.89;100.00;91401.09;5031148;28;20417;-69
2022/07/03 02:47:04;;;;;;;;;;;;;;;14.90;100.00;91400.78;5031325;28;19967;-70
2022/07/03 02:49:39;;;;;;;;;;;;;;;14.93;100.00;91404.69;5031165;28;19924;-70
2022/07/03 02:52:07;;;;;;;;;;;;;;;14.93;100.00;91402.03;5031085;28;20318;-69
2022/07/03 02:54:34;;;;;;;;;;;;;;;14.90;100.00;91403.47;5031177;28;19912;-69
2022/07/03 02:57:06;;;;;;;;;;;;;;;14.80;100.00;91397.66;5031029;28;19913;-70
2022/07/03 02:59:43;;;;;;;;;;;;;;;14.75;100.00;91403.22;5031097;28;19923;-70
2022/07/03 03:02:19;;;;;;;;;;;;;;;14.72;100.00;91401.97;5013366;28;20432;-70
2022/07/03 03:04:48;;;;;;;;;;;;;;;14.67;100.00;91410.97;5030974;28;20299;-70
2022/07/03 03:07:14;;;;;;;;;;;;;;;14.61;100.00;91422.94;5030882;28;19917;-69
2022/07/03 03:09:41;;;;;;;;;;;;;;;14.58;100.00;91422.81;5030972;28;19924;-70
2022/07/03 03:12:08;;;;;;;;;;;;;;;14.63;100.00;91417.28;5030917;28;19916;-70
2022/07/03 03:14:43;;;;;;;;;;;;;;;14.67;100.00;91424.38;5034530;28;19913;-69
2022/07/03 03:17:19;;;;;;;;;;;;;;;14.70;100.00;91419.47;5034420;28;19913;-70
2022/07/03 03:19:52;;;;;;;;;;;;;;;14.76;100.00;91415.50;5034444;28;19970;-69
2022/07/03 03:22:35;;;;;;;;;;;;;;;14.81;100.00;91416.09;5034518;28;19970;-69
2022/07/03 03:25:04;;;;;;;;;;;;;;;14.92;100.00;91413.84;5034450;28;20006;-69
2022/07/03 03:27:29;;;;;;;;;;;;;;;14.98;100.00;91418.69;5034175;28;19924;-69
2022/07/03 03:29:55;;;;;;;;;;;;;;;15.09;100.00;91421.78;5034354;28;20406;-69
2022/07/03 03:32:21;;;;;;;;;;;;;;;15.20;100.00;91422.22;5034422;28;19959;-69
2022/07/03 03:34:47;;;;;;;;;;;;;;;15.15;100.00;91412.47;5034234;28;20398;-69
2022/07/03 03:37:12;;;;;;;;;;;;;;;15.19;100.00;91420.66;5034065;28;19913;-69
2022/07/03 03:39:37;;;;;;;;;;;;;;;15.23;100.00;91421.56;5034166;28;19963;-69
2022/07/03 03:42:03;;;;;;;;;;;;;;;15.29;100.00;91413.00;5034117;28;19913;-69
2022/07/03 03:44:29;;;;;;;;;;;;;;;15.36;100.00;91415.19;5034003;28;19925;-69
2022/07/03 03:46:54;;;;;;;;;;;;;;;15.40;100.00;91418.00;5033895;28;19916;-69
2022/07/03 03:49:20;;;;;;;;;;;;;;;15.38;100.00;91415.66;5033871;28;20382;-68
2022/07/03 03:51:45;;;;;;;;;;;;;;;15.46;100.00;91422.84;5034020;28;19967;-68
2022/07/03 03:54:11;;;;;;;;;;;;;;;15.56;100.00;91411.72;5033733;28;19913;-68
2022/07/03 03:56:36;;;;;;;;;;;;;;;15.71;100.00;91420.34;5015703;28;19992;-69
2022/07/03 03:59:01;;;;;;;;;;;;;;;15.74;100.00;91423.13;5033646;28;19935;-68
2022/07/03 04:01:26;;;;;;;;;;;;;;;15.89;100.00;91416.41;5033621;28;19920;-68
2022/07/03 04:03:52;;;;;;;;;;;;;;;15.88;100.00;91418.28;5033512;28;19999;-68
2022/07/03 04:06:18;;;;;;;;;;;;;;;16.05;100.00;91421.94;5033590;28;19913;-68
2022/07/03 04:08:44;;;;;;;;;;;;;;;16.17;100.00;91413.94;5033391;28;20353;-68
2022/07/03 04:11:09;;;;;;;;;;;;;;;16.29;100.00;91422.03;5033341;28;20403;-69
2022/07/03 04:13:34;;;;;;;;;;;;;;;16.34;100.00;91418.34;5033457;28;20379;-69
2022/07/03 04:15:59;;;;;;;;;;;;;;;16.39;100.00;91415.47;5033333;28;20093;-69
2022/07/03 04:18:25;;;;;;;;;;;;;;;16.24;100.00;91410.72;5033165;28;19924;-69
2022/07/03 04:20:50;;;;;;;;;;;;;;;16.30;100.00;91418.25;5033138;28;19975;-69
2022/07/03 04:23:15;;;;;;;;;;;;;;;16.30;100.00;91418.25;5033119;28;20358;-69
2022/07/03 04:25:41;;;;;;;;;;;;;;;16.32;100.00;91424.06;5032410;28;19917;-69
2022/07/03 04:28:06;;;;;;;;;;;;;;;16.45;100.00;91414.16;5032886;28;19971;-69
2022/07/03 04:30:31;;;;;;;;;;;;;;;16.66;100.00;91419.44;5033034;28;19916;-69
2022/07/03 04:32:56;;;;;;;;;;;;;;;16.74;100.00;91422.06;5032988;28;19917;-69
2022/07/03 04:35:22;;;;;;;;;;;;;;;16.93;100.00;91434.19;5032932;28;19956;-69
2022/07/03 04:37:47;;;;;;;;;;;;;;;17.09;100.00;91421.66;5032836;28;19913;-68
2022/07/03 04:40:13;;;;;;;;;;;;;;;17.14;100.00;91428.72;5032925;28;19913;-68
2022/07/03 04:42:39;;;;;;;;;;;;;;;17.28;100.00;91427.25;5032847;28;19913;-69
2022/07/03 04:45:04;;;;;;;;;;;;;;;17.30;100.00;91432.28;5032886;28;19917;-69
2022/07/03 04:47:30;;;;;;;;;;;;;;;17.30;100.00;91438.44;5032686;28;19920;-69
2022/07/03 04:49:55;;;;;;;;;;;;;;;17.36;100.00;91436.34;5032812;28;19978;-69
2022/07/03 04:52:20;;;;;;;;;;;;;;;17.26;100.00;91431.41;5032805;28;19917;-69
2022/07/03 04:54:45;;;;;;;;;;;;;;;17.18;100.00;91437.66;5032699;28;19991;-69
2022/07/03 04:57:11;;;;;;;;;;;;;;;17.11;100.00;91434.75;5032608;28;19921;-69
2022/07/03 04:59:36;;;;;;;;;;;;;;;17.32;100.00;91435.41;5032596;28;19913;-69
2022/07/03 05:02:01;;;;;;;;;;;;;;;17.41;100.00;91433.41;5032623;28;19912;-69
2022/07/03 05:04:27;;;;;;;;;;;;;;;17.55;100.00;91436.53;5032508;28;20015;-69
2022/07/03 05:06:52;;;;;;;;;;;;;;;17.67;100.00;91436.53;5032418;28;19913;-69
2022/07/03 05:09:18;;;;;;;;;;;;;;;17.79;100.00;91430.34;5032544;28;20379;-69
2022/07/03 05:11:44;;;;;;;;;;;;;;;17.86;100.00;91437.88;5032371;28;19913;-69
2022/07/03 05:14:09;;;;;;;;;;;;;;;18.02;100.00;91425.25;5032380;28;20314;-69
2022/07/03 05:16:34;;;;;;;;;;;;;;;18.23;100.00;91435.84;5032250;28;19959;-69
2022/07/03 05:19:00;;;;;;;;;;;;;;;18.42;100.00;91427.09;5032375;28;19999;-69
2022/07/03 05:21:25;;;;;;;;;;;;;;;18.37;100.00;91425.47;5032274;28;19917;-69
2022/07/03 05:23:50;;;;;;;;;;;;;;;18.58;100.00;91414.47;5032332;28;19924;-69
2022/07/03 05:26:16;;;;;;;;;;;;;;;18.78;100.00;91418.88;5032232;28;19913;-69
2022/07/03 05:28:41;;;;;;;;;;;;;;;18.94;100.00;91421.59;5031986;28;19917;-69
2022/07/03 05:31:07;;;;;;;;;;;;;;;19.04;100.00;91414.88;5032142;28;19920;-69
2022/07/03 05:33:32;;;;;;;;;;;;;;;19.15;100.00;91411.31;5032151;28;19913;-69
2022/07/03 05:35:58;;;;;;;;;;;;;;;19.37;100.00;91412.59;5031998;28;19913;-69
2022/07/03 05:41:07;;;;;;;;;;;;;;;20.03;100.00;91411.75;5032054;28;19935;-68
2022/07/03 05:43:32;;;;;;;;;;;;;;;20.23;100.00;91414.50;5032006;28;20391;-69
2022/07/03 05:45:57;;;;;;;;;;;;;;;20.31;100.00;91405.38;5031970;28;19920;-69
2022/07/03 05:48:23;;;;;;;;;;;;;;;20.52;100.00;91416.66;5031836;28;19917;-69
2022/07/03 05:50:48;;;;;;;;;;;;;;;22.00;100.00;91416.75;5031769;28;19913;-69
2022/07/03 05:53:13;;;;;;;;;;;;;;;25.16;96.16;91417.81;5031856;28;19917;-69
2022/07/03 05:55:39;;;;;;;;;;;;;;;27.62;72.96;91418.00;5031858;28;19917;-69
2022/07/03 05:58:04;;;;;;;;;;;;;;;29.55;61.84;91415.97;5031735;28;19986;-70
2022/07/03 06:00:29;;;;;;;;;;;;;;;31.03;54.75;91430.28;5031807;28;20004;-70
2022/07/03 06:02:55;;;;;;;;;;;;;;;32.52;51.08;91437.19;5031702;28;20387;-70
2022/07/03 06:05:20;;;;;;;;;;;;;;;33.70;47.42;91429.19;5031688;28;19928;-70
2022/07/03 06:07:45;;;;;;;;;;;;;;;33.91;46.37;91432.09;5031599;28;19913;-72
2022/07/03 06:10:11;;;;;;;;;;;;;;;34.96;45.02;91435.81;5031717;28;19917;-70
2022/07/03 06:12:36;;;;;;;;;;;;;;;34.14;44.32;91439.28;5031644;28;19920;-68
2022/07/03 06:15:01;;;;;;;;;;;;;;;35.33;41.65;91436.84;5031670;28;19917;-70
2022/07/03 06:17:26;;;;;;;;;;;;;;;36.57;40.14;91437.59;5031500;28;19919;-70
2022/07/03 06:19:52;;;;;;;;;;;;;;;35.52;41.54;91426.72;5031619;28;19913;-70
2022/07/03 06:22:17;;;;;;;;;;;;;;;35.62;42.24;91431.81;5031626;28;19913;-70
2022/07/03 06:24:42;;;;;;;;;;;;;;;35.37;42.01;91430.00;5031526;28;20397;-70
2022/07/03 06:27:08;;;;;;;;;;;;;;;35.63;42.00;91432.59;5031156;28;19971;-68
2022/07/03 06:29:33;;;;;;;;;;;;;;;33.80;44.84;91428.13;5031463;28;19920;-70
2022/07/03 06:31:59;;;;;;;;;;;;;;;34.49;42.98;91431.84;5031353;28;19924;-70
2022/07/03 06:34:25;;;;;;;;;;;;;;;32.08;47.73;91439.44;5031723;28;20377;-70
2022/07/03 06:36:50;;;;;;;;;;;;;;;32.89;45.83;91439.38;5031370;28;20386;-70
2022/07/03 06:39:15;;;;;;;;;;;;;;;32.10;48.98;91434.25;5031392;28;19913;-70
2022/07/03 06:41:40;;;;;;;;;;;;;;;32.64;46.79;91436.47;5031421;28;20299;-70
2022/07/03 06:44:06;;;;;;;;;;;;;;;34.09;45.02;91437.09;5031331;28;20015;-70
2022/07/03 06:46:31;;;;;;;;;;;;;;;33.70;45.22;91432.72;5031239;28;19924;-70
2022/07/03 06:48:56;;;;;;;;;;;;;;;33.67;46.28;91436.38;5034309;28;20000;-70
2022/07/03 06:51:22;;;;;;;;;;;;;;;33.91;45.54;91443.13;5035134;28;19956;-70
2022/07/03 06:53:47;;;;;;;;;;;;;;;33.69;45.89;91433.19;5035213;28;19920;-70
2022/07/03 06:56:12;;;;;;;;;;;;;;;35.59;42.64;91424.44;5035035;28;19920;-70
2022/07/03 06:58:37;;;;;;;;;;;;;;;37.21;40.33;91428.56;5035282;28;20371;-70
2022/07/03 07:01:03;;;;;;;;;;;;;;;35.52;41.25;91423.94;5035028;28;19913;-70
2022/07/03 07:03:28;;;;;;;;;;;;;;;35.23;42.89;91426.94;5034977;28;20482;-70
2022/07/03 07:05:53;;;;;;;;;;;;;;;36.26;40.80;91428.56;5034924;28;19924;-70
2022/07/03 07:08:18;;;;;;;;;;;;;;;36.20;41.14;91427.63;5034807;28;20361;-69
2022/07/03 07:10:44;;;;;;;;;;;;;;;36.20;41.89;91430.41;5034759;28;19917;-70
2022/07/03 07:13:09;;;;;;;;;;;;;;;34.95;44.54;91423.22;5034805;28;20374;-70
2022/07/03 07:15:34;;;;;;;;;;;;;;;35.50;43.70;91423.59;5034753;28;20333;-70
2022/07/03 07:18:00;;;;;;;;;;;;;;;34.47;44.86;91428.75;5034596;28;19963;-70
2022/07/03 07:20:25;;;;;;;;;;;;;;;35.47;44.54;91432.81;5034646;28;20441;-70
2022/07/03 07:22:50;;;;;;;;;;;;;;;35.31;44.12;91419.91;5034581;28;19952;-70
2022/07/03 07:25:15;;;;;;;;;;;;;;;34.28;46.32;91423.47;5034585;28;19913;-70
2022/07/03 07:27:41;;;;;;;;;;;;;;;33.94;47.48;91420.19;5034323;28;19921;-70
2022/07/03 07:30:06;;;;;;;;;;;;;;;34.16;46.85;91414.75;5034495;28;19920;-70
2022/07/03 07:32:32;;;;;;;;;;;;;;;34.81;46.66;91416.91;5034407;28;19962;-70
2022/07/03 07:34:57;;;;;;;;;;;;;;;34.41;46.34;91413.19;5034399;28;20323;-70
2022/07/03 07:37:22;;;;;;;;;;;;;;;34.31;47.87;91412.28;5034257;28;19944;-70
2022/07/03 07:39:47;;;;;;;;;;;;;;;35.48;46.06;91409.44;5034342;28;19967;-70
2022/07/03 07:42:13;;;;;;;;;;;;;;;35.19;46.44;91410.50;5034250;28;20490;-69
2022/07/03 07:44:38;;;;;;;;;;;;;;;37.22;42.25;91412.69;5034384;28;20000;-69
2022/07/03 07:47:03;;;;;;;;;;;;;;;39.00;38.09;91415.44;5034054;28;19948;-69
2022/07/03 07:49:29;;;;;;;;;;;;;;;40.27;36.11;91412.69;5034126;28;19924;-69
2022/07/03 07:51:54;;;;;;;;;;;;;;;40.17;34.45;91414.81;5034026;28;20070;-69
2022/07/03 07:54:19;;;;;;;;;;;;;;;38.69;35.34;91404.69;5033999;28;20371;-69
2022/07/03 07:56:44;;;;;;;;;;;;;;;40.50;30.46;91403.41;5033945;28;19916;-69
2022/07/03 07:59:10;;;;;;;;;;;;;;;40.83;33.69;91408.69;5032720;28;20374;-69
2022/07/03 08:07:11;;;;;;;;;;;;;;;38.49;33.09;91410.81;5003145;28;20329;-69
2022/07/03 08:09:36;;;;;;;;;;;;;;;37.68;32.97;91405.06;5033760;28;19913;-69
2022/07/03 08:12:01;;;;;;;;;;;;;;;36.93;36.93;91407.63;5033625;28;20394;-69
2022/07/03 08:14:27;;;;;;;;;;;;;;;38.93;34.58;91399.88;5033735;28;20014;-69
2022/07/03 08:16:52;;;;;;;;;;;;;;;38.26;34.50;91401.97;5033519;28;19913;-69
2022/07/03 08:19:17;;;;;;;;;;;;;;;39.35;31.92;91410.84;5033817;28;19920;-69
2022/07/03 08:21:43;;;;;;;;;;;;;;;39.70;32.68;91396.28;5033547;28;19963;-69
2022/07/03 08:24:08;;;;;;;;;;;;;;;39.88;31.49;91407.22;5033516;28;20014;-69
2022/07/03 08:26:33;;;;;;;;;;;;;;;39.76;30.42;91405.50;5033325;28;19971;-69
2022/07/03 08:28:58;;;;;;;;;;;;;;;39.66;31.73;91404.06;5033180;28;19940;-69
2022/07/03 08:31:24;;;;;;;;;;;;;;;38.75;31.62;91402.78;5033386;28;19990;-69
2022/07/03 08:33:49;;;;;;;;;;;;;;;38.61;30.92;91407.78;5033273;28;19952;-69
2022/07/03 08:36:14;;;;;;;;;;;;;;;38.32;32.71;91411.19;5033096;28;19925;-69
2022/07/03 08:38:40;;;;;;;;;;;;;;;36.42;33.68;91411.69;5033184;28;19913;-69
2022/07/03 08:41:05;;;;;;;;;;;;;;;36.64;32.45;91419.16;5033116;28;19920;-69
2022/07/03 08:43:30;;;;;;;;;;;;;;;35.02;33.76;91411.88;5033076;28;20345;-68
2022/07/03 08:45:57;;;;;;;;;;;;;;;35.41;35.06;91410.50;5033044;28;19986;-69
2022/07/03 08:48:24;;;;;;;;;;;;;;;35.73;36.09;91409.28;5032912;28;19913;-69
2022/07/03 08:50:50;;;;;;;;;;;;;;;34.37;36.95;91405.00;5033144;28;20294;-69
2022/07/03 08:53:16;;;;;;;;;;;;;;;33.02;38.34;91411.84;5032906;28;20371;-69
2022/07/03 08:55:41;;;;;;;;;;;;;;;33.93;40.80;91412.34;5032894;28;20092;-69
2022/07/03 08:58:09;;;;;;;;;;;;;;;36.95;33.01;91411.50;5032731;28;19920;-69
2022/07/03 09:00:35;;;;;;;;;;;;;;;39.27;33.12;91403.31;5032787;28;19988;-69
2022/07/03 09:03:04;;;;;;;;;;;;;;;38.68;32.56;91408.72;5014940;28;19917;-69
2022/07/03 09:05:29;;;;;;;;;;;;;;;38.86;31.30;91412.16;5032966;28;20409;-69
2022/07/03 09:07:55;;;;;;;;;;;;;;;37.07;31.35;91407.78;5032460;28;20007;-68
2022/07/03 09:10:20;;;;;;;;;;;;;;;35.58;33.73;91414.59;5032184;28;19919;-68
2022/07/03 09:12:46;;;;;;;;;;;;;;;33.65;38.84;91409.22;5032538;28;19919;-69
2022/07/03 09:15:12;;;;;;;;;;;;;;;33.70;39.10;91401.59;5032473;28;19967;-68
2022/07/03 09:17:38;;;;;;;;;;;;;;;34.36;35.61;91406.22;5032461;28;19913;-69
2022/07/03 09:20:05;;;;;;;;;;;;;;;34.12;37.33;91399.53;5032397;28;20288;-68
2022/07/03 09:22:32;;;;;;;;;;;;;;;33.99;38.45;91396.00;5032406;28;19952;-69
2022/07/03 09:25:04;;;;;;;;;;;;;;;33.63;38.01;91399.84;5032287;28;19913;-69
2022/07/03 09:27:30;;;;;;;;;;;;;;;32.78;40.13;91403.03;5031982;28;19921;-69
2022/07/03 09:29:59;;;;;;;;;;;;;;;32.07;40.16;91408.38;5032266;28;19976;-69
2022/07/03 09:32:25;;;;;;;;;;;;;;;33.21;39.85;91408.16;5032167;28;19917;-68
2022/07/03 09:35:09;;;;;;;;;;;;;;;33.60;38.85;91406.22;5032161;28;19924;-69
2022/07/03 09:37:34;;;;;;;;;;;;;;;32.64;41.26;91406.94;5032029;28;19924;-69
2022/07/03 09:40:00;;;;;;;;;;;;;;;32.00;41.75;91399.50;5032173;28;19913;-68
2022/07/03 09:42:25;;;;;;;;;;;;;;;32.63;41.90;91410.13;5032049;28;20014;-69
2022/07/03 09:44:53;;;;;;;;;;;;;;;34.21;40.00;91400.38;5032013;28;19913;-69
2022/07/03 09:47:20;;;;;;;;;;;;;;;36.76;37.35;91404.34;5031830;28;20379;-68
2022/07/03 09:49:57;;;;;;;;;;;;;;;37.64;34.89;91410.81;5031957;28;20429;-69
2022/07/03 09:52:27;;;;;;;;;;;;;;;39.15;33.43;91402.38;5031810;28;19913;-69
2022/07/03 09:54:52;;;;;;;;;;;;;;;36.12;34.10;91401.44;5031859;28;20405;-69
2022/07/03 09:57:17;;;;;;;;;;;;;;;32.99;40.11;91401.72;5031757;28;20375;-69
2022/07/03 09:59:43;;;;;;;;;;;;;;;34.61;38.94;91399.09;5031843;28;19920;-69
2022/07/03 10:02:08;;;;;;;;;;;;;;;33.92;40.44;91399.75;5031822;28;20322;-68
2022/07/03 10:04:33;;;;;;;;;;;;;;;32.93;41.24;91393.19;5031709;28;20040;-69
2022/07/03 10:07:00;;;;;;;;;;;;;;;33.69;40.67;91394.53;5031575;28;19960;-68
2022/07/03 10:09:29;;;;;;;;;;;;;;;35.55;37.77;91396.13;5031734;28;19917;-69
2022/07/03 10:11:55;;;;;;;;;;;;;;;35.60;38.01;91394.75;5031590;28;20372;-69
2022/07/03 10:14:21;;;;;;;;;;;;;;;34.00;38.83;91387.25;5031679;28;20379;-68
2022/07/03 10:16:47;;;;;;;;;;;;;;;33.58;39.19;91381.84;5031494;28;20007;-69
2022/07/03 10:19:22;;;;;;;;;;;;;;;34.35;38.59;91390.06;5031611;28;19956;-69
2022/07/03 10:21:55;;;;;;;;;;;;;;;33.55;40.61;91382.72;5031849;28;19996;-69
2022/07/03 10:24:21;;;;;;;;;;;;;;;32.56;43.18;91380.03;5035375;28;19913;-69
2022/07/03 10:26:47;;;;;;;;;;;;;;;32.61;43.96;91383.00;5035398;28;19920;-70
2022/07/03 10:29:15;;;;;;;;;;;;;;;31.77;41.06;91370.97;5035585;28;20260;-69
2022/07/03 10:31:41;;;;;;;;;;;;;;;30.40;41.55;91368.69;5035440;28;19920;-69
2022/07/03 10:34:07;;;;;;;;;;;;;;;30.19;44.85;91369.09;5035508;28;19963;-69
2022/07/03 10:36:34;;;;;;;;;;;;;;;30.58;43.67;91371.09;5035372;28;19913;-69
2022/07/03 10:39:04;;;;;;;;;;;;;;;31.73;45.23;91375.78;5035365;28;19917;-69
2022/07/03 10:47:00;;;;;;;;;;;;;;;36.42;36.74;91367.38;5035427;28;20019;-69
2022/07/03 10:49:25;;;;;;;;;;;;;;;38.91;34.51;91355.06;5035273;28;19999;-69
2022/07/03 10:51:52;;;;;;;;;;;;;;;38.67;33.17;91365.47;5035114;28;19955;-69
2022/07/03 10:54:33;;;;;;;;;;;;;;;39.05;32.32;91368.25;5035164;28;19917;-69
2022/07/03 10:56:58;;;;;;;;;;;;;;;37.69;30.57;91362.97;5034944;28;19962;-69
2022/07/03 10:59:36;;;;;;;;;;;;;;;37.55;32.62;91360.06;5035351;28;19921;-69
2022/07/03 11:02:20;;;;;;;;;;;;;;;37.96;32.65;91355.78;5034984;28;19913;-69
2022/07/03 11:05:01;;;;;;;;;;;;;;;38.84;31.32;91353.44;5034924;28;20301;-69
2022/07/03 11:07:26;;;;;;;;;;;;;;;38.71;31.84;91352.16;5034799;28;19917;-69
2022/07/03 11:10:24;;;;;;;;;;;;;;;38.69;30.86;91349.84;5034832;28;19923;-69
2022/07/03 11:13:09;;;;;;;;;;;;;;;38.48;31.40;91348.09;4990905;28;20446;-69
2022/07/03 11:15:37;;;;;;;;;;;;;;;36.40;32.87;91339.34;5034803;28;19970;-69
2022/07/03 11:18:08;;;;;;;;;;;;;;;36.65;36.30;91337.53;5034642;28;19951;-69
2022/07/03 11:20:55;;;;;;;;;;;;;;;36.96;34.04;91340.91;5034545;28;19913;-69
2022/07/03 11:23:27;;;;;;;;;;;;;;;35.26;34.17;91334.75;5034429;28;19912;-69
2022/07/03 11:25:55;;;;;;;;;;;;;;;34.48;36.92;91341.88;5034395;28;19917;-69
2022/07/03 11:28:32;;;;;;;;;;;;;;;33.57;38.05;91330.63;5034331;28;20287;-69
2022/07/03 11:31:10;;;;;;;;;;;;;;;33.00;36.71;91326.84;5034317;28;19919;-69
2022/07/03 11:33:47;;;;;;;;;;;;;;;33.16;37.41;91327.97;5034123;28;19936;-69
2022/07/03 11:36:16;;;;;;;;;;;;;;;33.47;38.31;91320.72;5016405;28;19944;-71
2022/07/03 11:38:42;;;;;;;;;;;;;;;33.47;38.53;91312.44;5016432;28;19920;-71
2022/07/03 11:41:08;;;;;;;;;;;;;;;33.70;38.31;91316.81;5034298;28;19967;-74
2022/07/03 11:43:34;;;;;;;;;;;;;;;34.70;39.32;91317.00;5034149;28;19952;-73
2022/07/03 11:46:00;;;;;;;;;;;;;;;36.36;35.26;91318.56;5033655;28;19960;-73
2022/07/03 11:48:26;;;;;;;;;;;;;;;36.18;34.29;91317.28;5034070;28;19913;-73
2022/07/03 11:50:51;;;;;;;;;;;;;;;37.35;30.73;91318.97;5013512;28;20029;-76
2022/07/03 11:53:27;;;;;;;;;;;;;;;38.28;33.50;91313.34;5014001;28;19913;-71
2022/07/03 11:55:57;;;;;;;;;;;;;;;38.53;30.39;91316.88;5014145;28;20003;-70
2022/07/03 11:58:22;;;;;;;;;;;;;;;38.55;29.45;91319.94;4996274;28;19976;-73
2022/07/03 12:00:50;;;;;;;;;;;;;;;37.52;30.33;91317.38;5013708;28;19913;-69
2022/07/03 12:03:20;;;;;;;;;;;;;;;36.38;29.17;91316.88;5013949;28;20020;-68
2022/07/03 12:05:55;;;;;;;;;;;;;;;35.91;30.51;91312.44;5013755;28;19917;-70
2022/07/03 12:08:22;;;;;;;;;;;;;;;36.88;31.06;91301.63;5013789;28;19920;-70
2022/07/03 12:10:48;;;;;;;;;;;;;;;36.09;30.76;91305.41;5013638;28;19924;-67
2022/07/03 12:13:20;;;;;;;;;;;;;;;35.15;32.50;91299.19;5013656;28;19914;-66
2022/07/03 12:15:45;;;;;;;;;;;;;;;35.52;33.75;91299.41;5013160;28;19924;-67
2022/07/03 12:18:11;;;;;;;;;;;;;;;35.66;32.00;91301.56;5013546;28;19913;-67
2022/07/03 12:20:36;;;;;;;;;;;;;;;35.71;31.80;91301.00;5013504;28;19914;-67
2022/07/03 12:23:01;;;;;;;;;;;;;;;35.24;31.71;91295.72;5013517;28;19917;-65
2022/07/03 12:25:29;;;;;;;;;;;;;;;35.38;33.07;91287.66;5013448;28;19917;-65
2022/07/03 12:27:55;;;;;;;;;;;;;;;35.52;34.67;91289.09;5013318;28;20012;-65
2022/07/03 12:30:24;;;;;;;;;;;;;;;35.25;34.61;91292.47;5013019;28;19949;-65
2022/07/03 12:32:50;;;;;;;;;;;;;;;35.60;34.31;91279.28;5013233;28;19917;-67
2022/07/03 12:35:20;;;;;;;;;;;;;;;35.72;32.48;91286.69;5013030;28;19921;-66
2022/07/03 12:37:45;;;;;;;;;;;;;;;35.76;30.24;91292.06;5013072;28;20008;-67
2022/07/03 12:40:13;;;;;;;;;;;;;;;35.07;31.01;91275.81;5013041;28;20004;-68
2022/07/03 12:42:46;;;;;;;;;;;;;;;35.99;30.99;91283.25;5013187;28;19913;-67
2022/07/03 12:45:12;;;;;;;;;;;;;;;37.18;29.71;91282.44;5012040;28;19923;-67
2022/07/03 12:47:38;;;;;;;;;;;;;;;37.62;31.58;91274.44;4995480;28;19920;-67
2022/07/03 12:50:05;;;;;;;;;;;;;;;38.41;32.35;91287.31;5013076;28;19913;-67
2022/07/03 12:52:31;;;;;;;;;;;;;;;37.67;30.83;91292.47;5012877;28;19925;-66
2022/07/03 12:54:56;;;;;;;;;;;;;;;36.15;31.97;91276.66;5012927;28;19917;-67
2022/07/03 13:00:17;;;;;;;;;;;;;;;34.50;33.96;91286.16;5012623;28;20012;-67
2022/07/03 13:02:43;;;;;;;;;;;;;;;33.09;35.32;91279.31;5012621;28;19924;-67
2022/07/03 13:05:18;;;;;;;;;;;;;;;34.06;36.31;91282.53;5012722;28;19917;-67